createdAt,value
2019-01-10T00:00:59.740Z,999.91
2019-01-10T00:01:59.764Z,999.91
2019-01-10T00:02:59.788Z,999.94
2019-01-10T00:03:59.810Z,999.99
2019-01-10T00:04:59.841Z,1000.01
2019-01-10T00:05:59.858Z,999.97
2019-01-10T00:06:59.883Z,1000.01
2019-01-10T00:07:59.904Z,999.99
2019-01-10T00:08:59.928Z,999.99
2019-01-10T00:09:59.951Z,1000.00
2019-01-10T00:10:59.975Z,999.96
2019-01-10T00:11:59.998Z,999.94
2019-01-10T00:13:00.022Z,999.99
2019-01-10T00:14:00.044Z,999.93
2019-01-10T00:15:00.242Z,999.90
2019-01-10T00:16:00.093Z,999.96
2019-01-10T00:17:00.114Z,1000.01
2019-01-10T00:18:00.137Z,1000.00
2019-01-10T00:19:00.162Z,1000.01
2019-01-10T00:20:00.296Z,1000.07
2019-01-10T00:21:00.208Z,1000.06
2019-01-10T00:22:00.233Z,1000.06
2019-01-10T00:23:00.255Z,1000.02
2019-01-10T00:24:00.278Z,1000.03
2019-01-10T00:25:00.303Z,1000.03
2019-01-10T00:26:00.325Z,999.97
2019-01-10T00:27:00.347Z,999.98
2019-01-10T00:28:00.372Z,1000.02
2019-01-10T00:29:00.394Z,999.99
2019-01-10T00:30:00.419Z,999.99
2019-01-10T00:31:00.441Z,1000.06
2019-01-10T00:32:00.462Z,1000.07
2019-01-10T00:33:00.487Z,1000.08
2019-01-10T00:34:00.512Z,1000.15
2019-01-10T00:35:00.558Z,1000.12
2019-01-10T00:36:00.557Z,1000.12
2019-01-10T00:37:00.581Z,1000.13
2019-01-10T00:38:00.604Z,1000.12
2019-01-10T00:39:00.628Z,1000.06
2019-01-10T00:40:00.652Z,1000.09
2019-01-10T00:41:00.674Z,1000.07
2019-01-10T00:42:00.697Z,1000.13
2019-01-10T00:43:00.722Z,1000.15
2019-01-10T00:44:00.743Z,1000.14
2019-01-10T00:45:00.766Z,1000.16
2019-01-10T00:46:00.834Z,1000.16
2019-01-10T00:47:00.814Z,1000.21
2019-01-10T00:48:00.837Z,1000.16
2019-01-10T00:49:00.859Z,1000.22
2019-01-10T00:50:00.884Z,1000.19
2019-01-10T00:51:00.907Z,1000.18
2019-01-10T00:52:00.931Z,1000.16
2019-01-10T00:53:00.954Z,1000.17
2019-01-10T00:54:00.981Z,1000.21
2019-01-10T00:55:01.008Z,1000.22
2019-01-10T00:56:01.024Z,1000.21
2019-01-10T00:57:01.047Z,1000.30
2019-01-10T00:58:01.071Z,1000.36
2019-01-10T00:59:01.093Z,1000.34
2019-01-10T01:00:01.118Z,1000.37
2019-01-10T01:01:01.142Z,1000.40
2019-01-10T01:02:01.165Z,1000.41
2019-01-10T01:03:01.188Z,1000.45
2019-01-10T01:04:01.211Z,1000.47
2019-01-10T01:05:01.234Z,1000.42
2019-01-10T01:06:01.259Z,1000.48
2019-01-10T01:07:01.284Z,1000.53
2019-01-10T01:08:01.305Z,1000.53
2019-01-10T01:09:01.329Z,1000.57
2019-01-10T01:10:01.355Z,1000.60
2019-01-10T01:11:01.376Z,1000.58
2019-01-10T01:12:01.399Z,1000.59
2019-01-10T01:13:01.423Z,1000.63
2019-01-10T01:14:01.447Z,1000.64
2019-01-10T01:15:01.469Z,1000.70
2019-01-10T01:16:01.493Z,1000.67
2019-01-10T01:17:01.517Z,1000.67
2019-01-10T01:18:01.542Z,1000.70
2019-01-10T01:19:01.564Z,1000.77
2019-01-10T01:20:01.587Z,1000.80
2019-01-10T01:21:01.610Z,1000.79
2019-01-10T01:22:01.635Z,1000.85
2019-01-10T01:23:01.658Z,1000.83
2019-01-10T01:24:01.680Z,1000.88
2019-01-10T01:25:01.705Z,1000.86
2019-01-10T01:26:01.727Z,1000.81
2019-01-10T01:27:01.752Z,1000.90
2019-01-10T01:28:01.775Z,1000.86
2019-01-10T01:29:01.798Z,1000.90
2019-01-10T01:30:01.835Z,1000.84
2019-01-10T01:31:01.845Z,1000.91
2019-01-10T01:32:01.868Z,1000.95
2019-01-10T01:33:01.891Z,1000.94
2019-01-10T01:34:01.917Z,1000.97
2019-01-10T01:35:01.939Z,1000.99
2019-01-10T01:36:01.961Z,1000.95
2019-01-10T01:37:01.985Z,1000.94
2019-01-10T01:38:02.118Z,1001.02
2019-01-10T01:39:02.031Z,1000.99
2019-01-10T01:40:02.055Z,1000.98
2019-01-10T01:41:02.077Z,1001.05
2019-01-10T01:42:02.102Z,1001.06
2019-01-10T01:43:07.255Z,1001.08
2019-01-10T01:44:02.149Z,1001.06
2019-01-10T01:45:02.211Z,1001.06
2019-01-10T01:46:02.196Z,1001.08
2019-01-10T01:47:02.218Z,1001.11
2019-01-10T01:48:02.241Z,1001.09
2019-01-10T01:49:02.264Z,1001.05
2019-01-10T01:50:02.288Z,1001.06
2019-01-10T01:51:02.313Z,1001.12
2019-01-10T01:52:02.335Z,1001.12
2019-01-10T01:53:02.359Z,1001.18
2019-01-10T01:54:02.382Z,1001.16
2019-01-10T01:55:02.506Z,1001.16
2019-01-10T01:56:02.428Z,1001.20
2019-01-10T01:57:02.453Z,1001.25
2019-01-10T01:58:02.476Z,1001.23
2019-01-10T01:59:02.504Z,1001.25
2019-01-10T02:00:02.522Z,1001.27
2019-01-10T02:01:02.545Z,1001.29
2019-01-10T02:02:02.574Z,1001.33
2019-01-10T02:03:02.596Z,1001.29
2019-01-10T02:04:02.616Z,1001.34
2019-01-10T02:05:02.640Z,1001.31
2019-01-10T02:06:02.664Z,1001.33
2019-01-10T02:07:02.690Z,1001.35
2019-01-10T02:08:02.709Z,1001.36
2019-01-10T02:09:02.733Z,1001.43
2019-01-10T02:10:02.767Z,1001.38
2019-01-10T02:11:02.782Z,1001.37
2019-01-10T02:12:02.803Z,1001.39
2019-01-10T02:13:02.828Z,1001.45
2019-01-10T02:14:02.852Z,1001.42
2019-01-10T02:15:02.876Z,1001.40
2019-01-10T02:16:02.897Z,1001.36
2019-01-10T02:17:02.920Z,1001.36
2019-01-10T02:18:02.945Z,1001.38
2019-01-10T02:19:02.968Z,1001.37
2019-01-10T02:20:02.992Z,1001.40
2019-01-10T02:21:03.014Z,1001.39
2019-01-10T02:22:03.039Z,1001.47
2019-01-10T02:23:03.064Z,1001.48
2019-01-10T02:24:03.083Z,1001.46
2019-01-10T02:25:03.114Z,1001.46
2019-01-10T02:26:03.140Z,1001.43
2019-01-10T02:27:03.157Z,1001.46
2019-01-10T02:28:03.179Z,1001.46
2019-01-10T02:29:03.205Z,1001.52
2019-01-10T02:30:03.233Z,1001.50
2019-01-10T02:31:03.251Z,1001.47
2019-01-10T02:32:03.276Z,1001.52
2019-01-10T02:33:03.299Z,1001.48
2019-01-10T02:34:03.322Z,1001.52
2019-01-10T02:35:03.345Z,1001.56
2019-01-10T02:36:03.368Z,1001.54
2019-01-10T02:37:03.395Z,1001.56
2019-01-10T02:38:03.417Z,1001.53
2019-01-10T02:39:03.438Z,1001.55
2019-01-10T02:40:03.463Z,1001.56
2019-01-10T02:41:03.489Z,1001.52
2019-01-10T02:42:03.509Z,1001.53
2019-01-10T02:43:03.534Z,1001.54
2019-01-10T02:44:03.556Z,1001.52
2019-01-10T02:45:03.579Z,1001.52
2019-01-10T02:46:03.604Z,1001.58
2019-01-10T02:47:03.627Z,1001.54
2019-01-10T02:48:03.649Z,1001.52
2019-01-10T02:49:03.683Z,1001.51
2019-01-10T02:50:03.697Z,1001.50
2019-01-10T02:51:03.721Z,1001.48
2019-01-10T02:52:03.743Z,1001.49
2019-01-10T02:53:03.766Z,1001.47
2019-01-10T02:54:03.789Z,1001.53
2019-01-10T02:55:03.813Z,1001.48
2019-01-10T02:56:03.850Z,1001.50
2019-01-10T02:57:03.859Z,1001.45
2019-01-10T02:58:03.882Z,1001.46
2019-01-10T02:59:03.906Z,1001.55
2019-01-10T03:00:03.930Z,1001.55
2019-01-10T03:01:03.952Z,1001.53
2019-01-10T03:02:03.976Z,1001.57
2019-01-10T03:03:04.000Z,1001.53
2019-01-10T03:04:04.023Z,1001.55
2019-01-10T03:05:04.047Z,1001.48
2019-01-10T03:06:04.068Z,1001.44
2019-01-10T03:07:04.093Z,1001.50
2019-01-10T03:08:04.116Z,1001.46
2019-01-10T03:09:04.218Z,1001.45
2019-01-10T03:10:04.163Z,1001.46
2019-01-10T03:11:04.184Z,1001.48
2019-01-10T03:12:04.208Z,1001.49
2019-01-10T03:13:04.232Z,1001.46
2019-01-10T03:14:04.254Z,1001.45
2019-01-10T03:15:04.278Z,1001.43
2019-01-10T03:16:04.301Z,1001.44
2019-01-10T03:17:04.323Z,1001.43
2019-01-10T03:18:04.363Z,1001.40
2019-01-10T03:19:17.109Z,1001.40
2019-01-10T03:20:04.392Z,1001.43
2019-01-10T03:21:04.419Z,1001.40
2019-01-10T03:22:04.563Z,1001.41
2019-01-10T03:23:04.464Z,1001.43
2019-01-10T03:24:04.486Z,1001.41
2019-01-10T03:25:04.524Z,1001.45
2019-01-10T03:26:04.533Z,1001.44
2019-01-10T03:27:04.558Z,1001.42
2019-01-10T03:28:04.581Z,1001.37
2019-01-10T03:29:04.606Z,1001.42
2019-01-10T03:30:04.628Z,1001.36
2019-01-10T03:31:04.664Z,1001.38
2019-01-10T03:32:04.691Z,1001.38
2019-01-10T03:33:04.731Z,1001.37
2019-01-10T03:34:04.735Z,1001.37
2019-01-10T03:35:04.744Z,1001.36
2019-01-10T03:36:04.878Z,1001.35
2019-01-10T03:37:04.792Z,1001.32
2019-01-10T03:38:04.962Z,1001.32
2019-01-10T03:39:04.840Z,1001.35
2019-01-10T03:40:04.864Z,1001.38
2019-01-10T03:41:04.884Z,1001.33
2019-01-10T03:42:04.909Z,1001.33
2019-01-10T03:43:04.937Z,1001.32
2019-01-10T03:44:04.954Z,1001.33
2019-01-10T03:45:04.977Z,1001.31
2019-01-10T03:46:05.005Z,1001.33
2019-01-10T03:47:05.023Z,1001.36
2019-01-10T03:48:05.069Z,1001.33
2019-01-10T03:49:05.072Z,1001.34
2019-01-10T03:50:05.099Z,1001.35
2019-01-10T03:51:05.120Z,1001.31
2019-01-10T03:52:05.142Z,1001.31
2019-01-10T03:53:05.164Z,1001.32
2019-01-10T03:54:05.188Z,1001.30
2019-01-10T03:55:05.212Z,1001.33
2019-01-10T03:56:05.235Z,1001.29
2019-01-10T03:57:05.258Z,1001.34
2019-01-10T03:58:05.283Z,1001.34
2019-01-10T03:59:05.307Z,1001.33
2019-01-10T04:00:05.337Z,1001.34
2019-01-10T04:01:05.354Z,1001.34
2019-01-10T04:02:05.376Z,1001.37
2019-01-10T04:03:05.399Z,1001.32
2019-01-10T04:04:05.423Z,1001.33
2019-01-10T04:05:05.450Z,1001.33
2019-01-10T04:06:05.472Z,1001.29
2019-01-10T04:07:05.495Z,1001.27
2019-01-10T04:08:05.516Z,1001.25
2019-01-10T04:09:05.544Z,1001.29
2019-01-10T04:10:05.572Z,1001.24
2019-01-10T04:11:05.588Z,1001.27
2019-01-10T04:12:05.615Z,1001.25
2019-01-10T04:13:05.641Z,1001.26
2019-01-10T04:14:05.660Z,1001.25
2019-01-10T04:15:05.683Z,1001.30
2019-01-10T04:16:05.710Z,1001.29
2019-01-10T04:17:05.729Z,1001.33
2019-01-10T04:18:05.756Z,1001.34
2019-01-10T04:19:05.779Z,1001.34
2019-01-10T04:20:05.801Z,1001.33
2019-01-10T04:21:05.824Z,1001.37
2019-01-10T04:22:05.846Z,1001.32
2019-01-10T04:23:05.872Z,1001.33
2019-01-10T04:24:05.897Z,1001.34
2019-01-10T04:25:05.923Z,1001.35
2019-01-10T04:26:05.943Z,1001.30
2019-01-10T04:27:05.965Z,1001.34
2019-01-10T04:28:05.991Z,1001.39
2019-01-10T04:29:06.011Z,1001.39
2019-01-10T04:30:06.043Z,1001.40
2019-01-10T04:31:06.063Z,1001.35
2019-01-10T04:32:06.087Z,1001.37
2019-01-10T04:33:06.108Z,1001.47
2019-01-10T04:34:06.134Z,1001.43
2019-01-10T04:35:06.156Z,1001.42
2019-01-10T04:36:06.176Z,1001.41
2019-01-10T04:37:06.210Z,1001.41
2019-01-10T04:38:06.226Z,1001.46
2019-01-10T04:39:06.249Z,1001.51
2019-01-10T04:40:06.272Z,1001.56
2019-01-10T04:41:06.295Z,1001.50
2019-01-10T04:42:06.317Z,1001.48
2019-01-10T04:43:06.361Z,1001.53
2019-01-10T04:44:07.193Z,1001.60
2019-01-10T04:45:06.398Z,1001.55
2019-01-10T04:46:06.411Z,1001.55
2019-01-10T04:47:06.436Z,1001.53
2019-01-10T04:48:06.459Z,1001.49
2019-01-10T04:49:06.481Z,1001.52
2019-01-10T04:50:06.504Z,1001.51
2019-01-10T04:51:06.528Z,1001.49
2019-01-10T04:52:06.552Z,1001.47
2019-01-10T04:53:06.575Z,1001.46
2019-01-10T04:54:06.599Z,1001.48
2019-01-10T04:55:06.622Z,1001.49
2019-01-10T04:56:06.643Z,1001.49
2019-01-10T04:57:06.670Z,1001.56
2019-01-10T04:58:06.695Z,1001.52
2019-01-10T04:59:06.716Z,1001.55
2019-01-10T05:00:06.738Z,1001.52
2019-01-10T05:01:06.762Z,1001.53
2019-01-10T05:02:06.786Z,1001.54
2019-01-10T05:03:06.808Z,1001.54
2019-01-10T05:04:06.835Z,1001.51
2019-01-10T05:05:06.854Z,1001.54
2019-01-10T05:06:06.886Z,1001.59
2019-01-10T05:07:06.902Z,1001.56
2019-01-10T05:08:06.926Z,1001.57
2019-01-10T05:09:06.947Z,1001.61
2019-01-10T05:10:06.969Z,1001.62
2019-01-10T05:11:06.994Z,1001.61
2019-01-10T05:12:07.018Z,1001.61
2019-01-10T05:13:07.054Z,1001.64
2019-01-10T05:14:16.180Z,1001.62
2019-01-10T05:15:07.087Z,1001.59
2019-01-10T05:16:07.112Z,1001.67
2019-01-10T05:17:07.134Z,1001.65
2019-01-10T05:18:08.179Z,1001.68
2019-01-10T05:19:07.182Z,1001.71
2019-01-10T05:20:07.203Z,1001.70
2019-01-10T05:21:07.228Z,1001.72
2019-01-10T05:22:07.251Z,1001.71
2019-01-10T05:23:07.285Z,1001.74
2019-01-10T05:24:07.298Z,1001.74
2019-01-10T05:25:07.323Z,1001.72
2019-01-10T05:26:07.347Z,1001.74
2019-01-10T05:27:07.371Z,1001.72
2019-01-10T05:28:07.393Z,1001.76
2019-01-10T05:29:07.414Z,1001.75
2019-01-10T05:30:07.439Z,1001.73
2019-01-10T05:31:07.461Z,1001.75
2019-01-10T05:32:07.487Z,1001.76
2019-01-10T05:33:07.509Z,1001.75
2019-01-10T05:34:07.534Z,1001.75
2019-01-10T05:35:07.557Z,1001.80
2019-01-10T05:36:07.578Z,1001.80
2019-01-10T05:37:07.603Z,1001.86
2019-01-10T05:38:07.626Z,1001.83
2019-01-10T05:39:07.649Z,1001.81
2019-01-10T05:40:07.674Z,1001.79
2019-01-10T05:41:07.694Z,1001.80
2019-01-10T05:42:07.720Z,1001.80
2019-01-10T05:43:07.742Z,1001.83
2019-01-10T05:44:07.767Z,1001.85
2019-01-10T05:45:07.790Z,1001.90
2019-01-10T05:46:07.813Z,1001.89
2019-01-10T05:47:07.838Z,1001.91
2019-01-10T05:48:07.862Z,1001.93
2019-01-10T05:49:07.887Z,1001.99
2019-01-10T05:50:07.910Z,1002.01
2019-01-10T05:51:07.931Z,1002.05
2019-01-10T05:52:07.955Z,1002.03
2019-01-10T05:53:07.977Z,1002.03
2019-01-10T05:54:08.003Z,1002.03
2019-01-10T05:55:08.025Z,1002.08
2019-01-10T05:56:15.210Z,1002.04
2019-01-10T05:57:08.071Z,1002.08
2019-01-10T05:58:08.095Z,1002.08
2019-01-10T05:59:08.120Z,1002.13
2019-01-10T06:00:08.142Z,1002.13
2019-01-10T06:01:08.165Z,1002.18
2019-01-10T06:02:08.188Z,1002.15
2019-01-10T06:03:08.213Z,1002.16
2019-01-10T06:04:08.235Z,1002.16
2019-01-10T06:05:10.511Z,1002.19
2019-01-10T06:06:08.282Z,1002.20
2019-01-10T06:07:08.359Z,1002.20
2019-01-10T06:08:08.329Z,1002.20
2019-01-10T06:09:08.353Z,1002.22
2019-01-10T06:10:08.375Z,1002.21
2019-01-10T06:11:08.399Z,1002.20
2019-01-10T06:12:08.421Z,1002.24
2019-01-10T06:13:08.446Z,1002.21
2019-01-10T06:14:08.468Z,1002.24
2019-01-10T06:15:08.492Z,1002.23
2019-01-10T06:16:08.513Z,1002.27
2019-01-10T06:17:08.538Z,1002.27
2019-01-10T06:18:08.563Z,1002.27
2019-01-10T06:19:08.584Z,1002.24
2019-01-10T06:20:08.608Z,1002.30
2019-01-10T06:21:08.632Z,1002.30
2019-01-10T06:22:08.656Z,1002.29
2019-01-10T06:23:08.678Z,1002.27
2019-01-10T06:24:08.702Z,1002.28
2019-01-10T06:25:08.730Z,1002.33
2019-01-10T06:26:08.748Z,1002.28
2019-01-10T06:27:08.772Z,1002.34
2019-01-10T06:28:08.794Z,1002.30
2019-01-10T06:29:08.819Z,1002.34
2019-01-10T06:30:08.841Z,1002.35
2019-01-10T06:31:08.865Z,1002.33
2019-01-10T06:32:08.888Z,1002.35
2019-01-10T06:33:08.911Z,1002.39
2019-01-10T06:34:08.935Z,1002.40
2019-01-10T06:35:08.973Z,1002.41
2019-01-10T06:36:08.981Z,1002.44
2019-01-10T06:37:09.003Z,1002.50
2019-01-10T06:38:09.028Z,1002.45
2019-01-10T06:39:09.052Z,1002.51
2019-01-10T06:40:09.074Z,1002.51
2019-01-10T06:41:09.098Z,1002.51
2019-01-10T06:42:09.127Z,1002.55
2019-01-10T06:43:09.144Z,1002.58
2019-01-10T06:44:09.167Z,1002.51
2019-01-10T06:45:09.191Z,1002.55
2019-01-10T06:46:09.215Z,1002.61
2019-01-10T06:47:09.239Z,1002.59
2019-01-10T06:48:09.261Z,1002.62
2019-01-10T06:49:09.285Z,1002.63
2019-01-10T06:50:09.309Z,1002.64
2019-01-10T06:51:09.331Z,1002.70
2019-01-10T06:52:09.358Z,1002.67
2019-01-10T06:53:09.380Z,1002.66
2019-01-10T06:54:09.403Z,1002.68
2019-01-10T06:55:09.427Z,1002.67
2019-01-10T06:56:09.450Z,1002.71
2019-01-10T06:57:09.473Z,1002.67
2019-01-10T06:58:09.499Z,1002.66
2019-01-10T06:59:09.522Z,1002.65
2019-01-10T07:00:09.543Z,1002.63
2019-01-10T07:01:09.568Z,1002.64
2019-01-10T07:02:09.591Z,1002.62
2019-01-10T07:03:09.614Z,1002.61
2019-01-10T07:04:09.638Z,1002.61
2019-01-10T07:05:11.156Z,1002.69
2019-01-10T07:06:09.685Z,1002.67
2019-01-10T07:07:09.708Z,1002.73
2019-01-10T07:08:09.734Z,1002.71
2019-01-10T07:09:09.757Z,1002.68
2019-01-10T07:10:09.779Z,1002.72
2019-01-10T07:11:09.804Z,1002.71
2019-01-10T07:12:09.826Z,1002.72
2019-01-10T07:13:09.849Z,1002.73
2019-01-10T07:14:09.876Z,1002.74
2019-01-10T07:15:09.898Z,1002.74
2019-01-10T07:16:09.921Z,1002.80
2019-01-10T07:17:09.946Z,1002.85
2019-01-10T07:18:09.967Z,1002.80
2019-01-10T07:19:10.089Z,1002.85
2019-01-10T07:20:10.016Z,1002.86
2019-01-10T07:21:10.037Z,1002.86
2019-01-10T07:22:10.063Z,1002.89
2019-01-10T07:23:10.086Z,1002.92
2019-01-10T07:24:10.109Z,1002.91
2019-01-10T07:25:10.137Z,1002.89
2019-01-10T07:26:10.156Z,1002.96
2019-01-10T07:27:10.180Z,1002.91
2019-01-10T07:28:10.202Z,1002.93
2019-01-10T07:29:10.231Z,1002.94
2019-01-10T07:30:10.250Z,1002.98
2019-01-10T07:31:10.274Z,1003.00
2019-01-10T07:32:10.298Z,1002.94
2019-01-10T07:33:10.322Z,1003.01
2019-01-10T07:34:10.348Z,1003.00
2019-01-10T07:35:10.370Z,1002.98
2019-01-10T07:36:10.393Z,1003.00
2019-01-10T07:37:12.969Z,1003.02
2019-01-10T07:38:10.439Z,1003.03
2019-01-10T07:39:10.463Z,1003.03
2019-01-10T07:40:10.485Z,1003.07
2019-01-10T07:41:10.510Z,1003.09
2019-01-10T07:42:10.533Z,1003.11
2019-01-10T07:43:10.558Z,1003.07
2019-01-10T07:44:10.580Z,1003.10
2019-01-10T07:45:10.604Z,1003.15
2019-01-10T07:46:10.631Z,1003.14
2019-01-10T07:47:10.651Z,1003.14
2019-01-10T07:48:10.675Z,1003.14
2019-01-10T07:49:10.698Z,1003.17
2019-01-10T07:50:10.765Z,1003.20
2019-01-10T07:51:10.746Z,1003.18
2019-01-10T07:52:10.770Z,1003.21
2019-01-10T07:53:10.794Z,1003.21
2019-01-10T07:54:10.818Z,1003.20
2019-01-10T07:55:10.840Z,1003.22
2019-01-10T07:56:10.865Z,1003.22
2019-01-10T07:57:10.888Z,1003.19
2019-01-10T07:58:10.912Z,1003.20
2019-01-10T07:59:10.937Z,1003.21
2019-01-10T08:00:10.958Z,1003.23
2019-01-10T08:01:10.982Z,1003.25
2019-01-10T08:02:11.008Z,1003.23
2019-01-10T08:03:11.031Z,1003.24
2019-01-10T08:04:11.053Z,1003.16
2019-01-10T08:05:11.076Z,1003.21
2019-01-10T08:06:11.102Z,1003.16
2019-01-10T08:07:11.126Z,1003.18
2019-01-10T08:08:11.148Z,1003.22
2019-01-10T08:09:11.171Z,1003.24
2019-01-10T08:10:11.195Z,1003.22
2019-01-10T08:11:11.222Z,1003.23
2019-01-10T08:12:11.243Z,1003.24
2019-01-10T08:13:11.266Z,1003.25
2019-01-10T08:14:11.291Z,1003.23
2019-01-10T08:15:11.970Z,1003.27
2019-01-10T08:16:11.387Z,1003.25
2019-01-10T08:17:16.183Z,1003.26
2019-01-10T08:18:11.387Z,1003.25
2019-01-10T08:19:11.410Z,1003.30
2019-01-10T08:20:11.536Z,1003.31
2019-01-10T08:21:11.455Z,1003.33
2019-01-10T08:22:11.480Z,1003.36
2019-01-10T08:23:11.504Z,1003.37
2019-01-10T08:24:11.526Z,1003.42
2019-01-10T08:25:11.552Z,1003.40
2019-01-10T08:26:11.576Z,1003.44
2019-01-10T08:27:11.669Z,1003.40
2019-01-10T08:28:11.621Z,1003.42
2019-01-10T08:29:11.646Z,1003.43
2019-01-10T08:30:11.670Z,1003.48
2019-01-10T08:31:11.695Z,1003.50
2019-01-10T08:32:11.716Z,1003.48
2019-01-10T08:33:11.741Z,1003.45
2019-01-10T08:34:11.764Z,1003.51
2019-01-10T08:35:11.789Z,1003.49
2019-01-10T08:36:11.813Z,1003.54
2019-01-10T08:37:12.262Z,1003.49
2019-01-10T08:38:11.858Z,1003.53
2019-01-10T08:39:11.884Z,1003.53
2019-01-10T08:40:11.904Z,1003.53
2019-01-10T08:41:13.885Z,1003.52
2019-01-10T08:42:11.953Z,1003.54
2019-01-10T08:43:11.976Z,1003.59
2019-01-10T08:44:12.000Z,1003.58
2019-01-10T08:45:21.104Z,1003.51
2019-01-10T08:46:12.046Z,1003.60
2019-01-10T08:47:12.070Z,1003.62
2019-01-10T08:48:12.094Z,1003.58
2019-01-10T08:49:12.117Z,1003.62
2019-01-10T08:50:12.143Z,1003.58
2019-01-10T08:51:12.168Z,1003.63
2019-01-10T08:52:12.187Z,1003.66
2019-01-10T08:53:12.213Z,1003.65
2019-01-10T08:54:12.235Z,1003.61
2019-01-10T08:55:12.260Z,1003.65
2019-01-10T08:56:12.286Z,1003.71
2019-01-10T08:57:12.306Z,1003.74
2019-01-10T08:58:12.329Z,1003.69
2019-01-10T08:59:12.353Z,1003.69
2019-01-10T09:00:12.375Z,1003.72
2019-01-10T09:01:12.400Z,1003.71
2019-01-10T09:02:12.424Z,1003.71
2019-01-10T09:03:12.448Z,1003.73
2019-01-10T09:04:12.563Z,1003.71
2019-01-10T09:05:12.493Z,1003.73
2019-01-10T09:06:12.529Z,1003.73
2019-01-10T09:07:12.542Z,1003.75
2019-01-10T09:08:12.565Z,1003.76
2019-01-10T09:09:12.588Z,1003.77
2019-01-10T09:10:12.612Z,1003.78
2019-01-10T09:11:12.636Z,1003.80
2019-01-10T09:12:12.660Z,1003.86
2019-01-10T09:13:12.686Z,1003.88
2019-01-10T09:14:12.709Z,1003.87
2019-01-10T09:15:12.731Z,1003.78
2019-01-10T09:16:12.755Z,1003.82
2019-01-10T09:17:12.776Z,1003.83
2019-01-10T09:18:12.802Z,1003.83
2019-01-10T09:19:12.827Z,1003.85
2019-01-10T09:20:12.848Z,1003.79
2019-01-10T09:21:12.873Z,1003.84
2019-01-10T09:22:12.897Z,1003.85
2019-01-10T09:23:12.921Z,1003.83
2019-01-10T09:24:12.944Z,1003.78
2019-01-10T09:25:12.967Z,1003.81
2019-01-10T09:26:12.992Z,1003.87
2019-01-10T09:27:13.016Z,1003.86
2019-01-10T09:28:13.042Z,1003.88
2019-01-10T09:29:13.064Z,1003.87
2019-01-10T09:30:13.088Z,1003.86
2019-01-10T09:31:13.111Z,1003.91
2019-01-10T09:32:13.134Z,1003.94
2019-01-10T09:33:13.159Z,1003.94
2019-01-10T09:34:13.185Z,1003.92
2019-01-10T09:35:13.215Z,1003.93
2019-01-10T09:36:13.231Z,1003.89
2019-01-10T09:37:13.255Z,1003.94
2019-01-10T09:38:13.281Z,1003.95
2019-01-10T09:39:13.301Z,1003.96
2019-01-10T09:40:13.328Z,1003.92
2019-01-10T09:41:13.352Z,1003.96
2019-01-10T09:42:13.375Z,1003.96
2019-01-10T09:43:13.398Z,1004.03
2019-01-10T09:44:13.422Z,1004.03
2019-01-10T09:45:13.448Z,1004.02
2019-01-10T09:46:13.472Z,1004.03
2019-01-10T09:47:13.495Z,1004.06
2019-01-10T09:48:13.528Z,1004.08
2019-01-10T09:49:14.999Z,1004.02
2019-01-10T09:50:13.565Z,1004.05
2019-01-10T09:51:13.591Z,1004.10
2019-01-10T09:52:13.614Z,1004.06
2019-01-10T09:53:13.638Z,1004.08
2019-01-10T09:54:13.661Z,1004.12
2019-01-10T09:55:13.685Z,1004.11
2019-01-10T09:56:13.708Z,1004.08
2019-01-10T09:57:13.733Z,1004.09
2019-01-10T09:58:13.757Z,1004.12
2019-01-10T09:59:13.779Z,1004.09
2019-01-10T10:00:13.803Z,1004.12
2019-01-10T10:01:13.827Z,1004.18
2019-01-10T10:02:13.853Z,1004.10
2019-01-10T10:03:13.876Z,1004.17
2019-01-10T10:04:13.898Z,1004.14
2019-01-10T10:05:13.924Z,1004.16
2019-01-10T10:06:13.946Z,1004.11
2019-01-10T10:07:13.972Z,1004.09
2019-01-10T10:08:14.035Z,1004.07
2019-01-10T10:09:14.017Z,1004.13
2019-01-10T10:10:14.042Z,1004.16
2019-01-10T10:11:14.117Z,1004.18
2019-01-10T10:12:14.089Z,1004.16
2019-01-10T10:13:14.113Z,1004.13
2019-01-10T10:14:14.136Z,1004.13
2019-01-10T10:15:14.161Z,1004.16
2019-01-10T10:16:14.191Z,1004.14
2019-01-10T10:17:14.208Z,1004.11
2019-01-10T10:18:14.232Z,1004.14
2019-01-10T10:19:14.256Z,1004.13
2019-01-10T10:20:14.821Z,1004.14
2019-01-10T10:21:14.305Z,1004.06
2019-01-10T10:22:14.332Z,1004.12
2019-01-10T10:23:14.353Z,1004.07
2019-01-10T10:24:14.376Z,1004.09
2019-01-10T10:25:14.400Z,1004.09
2019-01-10T10:26:14.493Z,1004.05
2019-01-10T10:27:14.453Z,1004.07
2019-01-10T10:28:14.473Z,1004.10
2019-01-10T10:29:14.495Z,1004.11
2019-01-10T10:30:14.519Z,1004.15
2019-01-10T10:31:14.546Z,1004.12
2019-01-10T10:32:14.567Z,1004.10
2019-01-10T10:33:14.593Z,1004.11
2019-01-10T10:34:14.617Z,1004.07
2019-01-10T10:35:14.640Z,1004.05
2019-01-10T10:36:14.663Z,1004.12
2019-01-10T10:37:14.687Z,1004.09
2019-01-10T10:38:14.711Z,1004.15
2019-01-10T10:39:14.737Z,1004.16
2019-01-10T10:40:14.759Z,1004.11
2019-01-10T10:41:14.782Z,1004.14
2019-01-10T10:42:14.807Z,1004.11
2019-01-10T10:43:14.832Z,1004.15
2019-01-10T10:44:14.855Z,1004.18
2019-01-10T10:45:14.881Z,1004.18
2019-01-10T10:46:14.904Z,1004.16
2019-01-10T10:47:14.928Z,1004.10
2019-01-10T10:48:14.951Z,1004.14
2019-01-10T10:49:14.976Z,1004.10
2019-01-10T10:50:15.000Z,1004.10
2019-01-10T10:51:15.025Z,1004.12
2019-01-10T10:52:15.047Z,1004.13
2019-01-10T10:53:15.072Z,1004.13
2019-01-10T10:54:15.098Z,1004.13
2019-01-10T10:55:15.121Z,1004.11
2019-01-10T10:56:15.144Z,1004.07
2019-01-10T10:57:15.168Z,1004.07
2019-01-10T10:58:15.294Z,1004.09
2019-01-10T10:59:15.216Z,1004.09
2019-01-10T11:00:15.239Z,1004.05
2019-01-10T11:01:15.264Z,1004.05
2019-01-10T11:02:15.288Z,1004.07
2019-01-10T11:03:15.313Z,1004.05
2019-01-10T11:04:15.335Z,1004.10
2019-01-10T11:05:15.360Z,1004.05
2019-01-10T11:06:15.384Z,1004.07
2019-01-10T11:07:15.408Z,1004.05
2019-01-10T11:08:15.435Z,1004.05
2019-01-10T11:09:15.456Z,1004.11
2019-01-10T11:10:15.481Z,1004.11
2019-01-10T11:11:15.505Z,1004.09
2019-01-10T11:12:15.529Z,1004.06
2019-01-10T11:13:15.553Z,1004.09
2019-01-10T11:14:15.577Z,1004.01
2019-01-10T11:15:15.602Z,1004.04
2019-01-10T11:16:15.626Z,1004.03
2019-01-10T11:17:15.649Z,1004.06
2019-01-10T11:18:15.674Z,1004.04
2019-01-10T11:19:15.700Z,1004.05
2019-01-10T11:20:15.724Z,1004.08
2019-01-10T11:21:15.748Z,1004.06
2019-01-10T11:22:15.771Z,1004.05
2019-01-10T11:23:15.796Z,1004.02
2019-01-10T11:24:15.819Z,1004.05
2019-01-10T11:25:15.844Z,1004.01
2019-01-10T11:26:15.868Z,1004.02
2019-01-10T11:27:15.894Z,1004.05
2019-01-10T11:28:15.917Z,1004.07
2019-01-10T11:29:15.942Z,1004.04
2019-01-10T11:30:15.966Z,1004.03
2019-01-10T11:31:15.990Z,1004.02
2019-01-10T11:32:16.015Z,1004.07
2019-01-10T11:33:16.039Z,1004.05
2019-01-10T11:34:16.064Z,1004.05
2019-01-10T11:35:16.088Z,1004.08
2019-01-10T11:36:16.112Z,1004.05
2019-01-10T11:37:16.137Z,1004.07
2019-01-10T11:38:16.162Z,1003.97
2019-01-10T11:39:16.187Z,1004.03
2019-01-10T11:40:16.211Z,1004.01
2019-01-10T11:41:16.235Z,1004.02
2019-01-10T11:42:16.259Z,1003.98
2019-01-10T11:43:16.285Z,1003.97
2019-01-10T11:44:16.308Z,1004.00
2019-01-10T11:45:16.332Z,1004.05
2019-01-10T11:46:19.695Z,1004.09
2019-01-10T11:47:16.382Z,1003.99
2019-01-10T11:48:16.407Z,1003.97
2019-01-10T11:49:16.431Z,1003.92
2019-01-10T11:50:16.495Z,1003.94
2019-01-10T11:51:16.481Z,1004.01
2019-01-10T11:52:16.505Z,1003.99
2019-01-10T11:53:16.530Z,1004.02
2019-01-10T11:54:16.555Z,1003.98
2019-01-10T11:55:16.580Z,1004.04
2019-01-10T11:56:16.604Z,1004.00
2019-01-10T11:57:16.629Z,1004.05
2019-01-10T11:58:16.654Z,1004.07
2019-01-10T11:59:16.677Z,1004.02
2019-01-10T12:00:16.795Z,1003.97
2019-01-10T12:01:16.725Z,1003.92
2019-01-10T12:02:16.750Z,1004.02
2019-01-10T12:03:16.774Z,1004.03
2019-01-10T12:04:16.798Z,1004.00
2019-01-10T12:05:16.823Z,1003.97
2019-01-10T12:06:16.847Z,1003.97
2019-01-10T12:07:16.871Z,1003.99